High Island, Texas
Current Conditions -  °F | °C
As of 7:35 AM on Friday 24 Oct 2014 (Local Time) from KXIH Reporting Station
Clear Clear  
Wind Chill: 68°   Ceiling: Unl
Heat Index: 68°   Visibility: 10mi
Dew Point: 57°   Wind: 12mph
Humidity: 68%   Direction: 60°ENE
Pressure: 30.11"   Gusts: NA
Location:  29.57°N, 94.39°W
Report Text: KXIH 241235Z AUTO 06010KT 10SM CLR 20/14 A3011 RMK A01
Loading
Personal Weather Stations






























Interactive Weather Map
Tropical Storm Tracking
New forecast layout! Learn more

10-Day Weather Forecast

Advertisements
Track Severe Weather on mobile